Time;durP1;ratioP1;P1;durP2;ratioP2;P2;SDS_P1;SDS_P2;PMS_P1;PMS_P2;Temp;Humidity;BMP_temperature;BMP_pressure;BME280_temperature;BME280_humidity;BME280_pressure;Samples;Min_cycle;Max_cycle;Signal;HPM_P1;HPM_P2
2022/10/21 00:00:35;;;;;;;7.65;4.40;;;9.10;99.90;;;;;;5036010;28;20037;-82
2022/10/21 00:03:02;;;;;;;6.30;4.10;;;9.10;99.90;;;;;;5035229;28;20025;-82
2022/10/21 00:05:28;;;;;;;9.52;4.60;;;9.10;99.90;;;;;;5013828;28;20028;-82
2022/10/21 00:07:53;;;;;;;6.30;4.50;;;9.10;99.90;;;;;;5036349;28;20022;-82
2022/10/21 00:10:19;;;;;;;9.20;4.82;;;9.10;99.90;;;;;;5033871;28;20014;-82
2022/10/21 00:12:44;;;;;;;8.35;4.70;;;9.10;99.90;;;;;;5037382;28;20014;-83
2022/10/21 00:15:11;;;;;;;11.60;5.32;;;9.10;99.90;;;;;;5021542;28;20070;-83
2022/10/21 00:22:43;;;;;;;6.80;4.65;;;;;;;;;;5290086;22;20050;-83
2022/10/21 00:25:09;;;;;;;8.85;4.65;;;;;;;;;;5017966;28;20025;-82
2022/10/21 00:27:35;;;;;;;5.93;4.57;;;;;;;;;;5000044;28;20031;-83
2022/10/21 00:30:01;;;;;;;8.90;4.82;;;;;;;;;;5000469;28;20019;-82
2022/10/21 00:32:27;;;;;;;7.22;4.13;;;8.90;99.90;;;;;;5002149;28;20021;-82
2022/10/21 00:34:53;;;;;;;8.88;5.93;;;9.40;99.90;;;;;;5018660;28;20048;-81
2022/10/21 00:37:19;;;;;;;8.68;4.38;;;;;;;;;;4983454;28;20057;-79
2022/10/21 00:39:44;;;;;;;10.13;5.05;;;8.80;99.90;;;;;;4999093;28;20095;-79
2022/10/21 00:42:21;;;;;;;6.63;4.63;;;8.80;99.90;;;;;;4981466;28;20025;-79
2022/10/21 00:45:23;;;;;;;8.93;4.75;;;8.80;99.90;;;;;;4982698;28;20078;-79
2022/10/21 00:47:54;;;;;;;10.68;4.80;;;8.70;99.90;;;;;;4922594;29;20134;-79
2022/10/21 00:50:35;;;;;;;9.30;4.40;;;8.70;99.90;;;;;;4990697;28;20466;-79
2022/10/21 00:53:02;;;;;;;8.15;4.55;;;8.70;99.90;;;;;;5003741;28;20034;-78
2022/10/21 00:55:33;;;;;;;8.45;5.20;;;8.70;99.90;;;;;;4987215;28;20033;-79
2022/10/21 00:58:01;;;;;;;11.02;5.72;;;8.70;99.90;;;;;;5003588;28;20018;-79
2022/10/21 01:00:26;;;;;;;9.68;4.75;;;8.70;99.90;;;;;;4986353;28;20034;-79
2022/10/21 01:02:52;;;;;;;6.95;4.38;;;8.60;99.90;;;;;;4985324;28;20022;-79
2022/10/21 01:05:18;;;;;;;7.65;5.00;;;8.60;99.90;;;;;;4985176;28;20074;-79
2022/10/21 01:07:47;;;;;;;10.98;5.00;;;8.50;99.90;;;;;;5002396;28;20046;-79
2022/10/21 01:10:13;;;;;;;;;;;8.50;99.90;;;;;;5002275;28;20034;-79
2022/10/21 01:13:07;;;;;;;6.40;4.32;;;8.50;99.90;;;;;;5001487;28;19905;-79
2022/10/21 01:15:51;;;;;;;9.95;4.75;;;8.50;99.90;;;;;;5003064;28;20041;-80
2022/10/21 01:18:38;;;;;;;8.18;4.63;;;8.50;99.90;;;;;;5005294;28;20026;-79
2022/10/21 01:21:16;;;;;;;5.68;4.65;;;8.50;99.90;;;;;;5005352;28;20054;-80
2022/10/21 01:24:07;;;;;;;6.93;4.97;;;8.40;99.90;;;;;;5004994;28;20377;-80
2022/10/21 01:26:59;;;;;;;7.85;4.93;;;8.40;99.90;;;;;;4987103;28;20033;-79
2022/10/21 01:30:04;;;;;;;7.72;4.57;;;8.40;99.90;;;;;;5002693;28;20018;-79
2022/10/21 01:32:46;;;;;;;5.60;4.22;;;8.40;99.90;;;;;;4985537;28;20144;-79
2022/10/21 01:35:37;;;;;;;11.80;5.28;;;8.40;99.90;;;;;;5001697;28;20026;-77
2022/10/21 01:38:09;;;;;;;9.38;4.78;;;8.40;99.90;;;;;;4993456;28;20042;-79
2022/10/21 01:40:49;;;;;;;8.70;6.00;;;8.30;99.90;;;;;;4984334;28;20466;-78
2022/10/21 01:43:25;;;;;;;7.13;4.63;;;8.30;99.90;;;;;;4984157;28;20030;-78
2022/10/21 01:45:58;;;;;;;11.57;4.82;;;8.30;99.90;;;;;;4983761;28;20037;-78
2022/10/21 01:48:28;;;;;;;7.07;4.78;;;8.30;99.90;;;;;;5001456;28;20026;-79
2022/10/21 01:51:03;;;;;;;7.10;4.85;;;8.20;99.90;;;;;;5001846;28;20018;-79
2022/10/21 01:53:38;;;;;;;8.13;4.63;;;8.20;99.90;;;;;;5001955;28;20022;-79
2022/10/21 01:56:05;;;;;;;6.82;4.90;;;8.20;99.90;;;;;;5001066;28;20039;-79
2022/10/21 01:58:33;;;;;;;10.43;5.07;;;8.20;99.90;;;;;;5000411;28;20026;-79
2022/10/21 02:01:02;;;;;;;14.27;5.50;;;8.20;99.90;;;;;;5000341;28;20022;-79
2022/10/21 02:03:34;;;;;;;8.23;5.10;;;8.20;99.90;;;;;;5000120;28;20019;-79
2022/10/21 02:06:00;;;;;;;7.40;4.93;;;8.10;99.90;;;;;;5000187;28;20030;-79
2022/10/21 02:08:26;;;;;;;7.50;5.45;;;8.10;99.90;;;;;;4999773;28;20097;-78
2022/10/21 02:10:55;;;;;;;23.58;6.85;;;8.10;99.90;;;;;;4999833;28;20046;-79
2022/10/21 02:13:29;;;;;;;9.23;5.68;;;8.10;99.90;;;;;;5000508;28;20056;-79
2022/10/21 02:15:59;;;;;;;8.90;5.20;;;8.00;99.90;;;;;;5000338;28;20022;-79
2022/10/21 02:18:26;;;;;;;8.50;5.28;;;8.00;99.90;;;;;;4982216;28;20077;-79
2022/10/21 02:20:58;;;;;;;9.85;6.00;;;8.00;99.90;;;;;;4982949;28;20022;-79
2022/10/21 02:23:52;;;;;;;8.43;5.30;;;7.90;99.90;;;;;;4983290;28;20046;-79
2022/10/21 02:26:18;;;;;;;12.32;5.00;;;7.90;99.90;;;;;;4982375;28;20034;-78
2022/10/21 02:28:45;;;;;;;8.30;5.53;;;7.90;99.90;;;;;;4983639;28;20018;-79
2022/10/21 02:31:41;;;;;;;7.47;5.30;;;7.90;99.90;;;;;;4983142;28;20026;-78
2022/10/21 02:34:10;;;;;;;12.40;5.88;;;7.90;99.90;;;;;;5001094;28;20033;-79
2022/10/21 02:37:07;;;;;;;13.52;5.70;;;7.90;99.90;;;;;;4984450;28;20037;-79
2022/10/21 02:39:51;;;;;;;9.23;5.45;;;7.90;99.90;;;;;;4982336;28;20026;-79
2022/10/21 02:42:22;;;;;;;11.00;5.35;;;7.90;99.90;;;;;;4981962;28;20029;-79
2022/10/21 02:44:48;;;;;;;9.93;5.22;;;7.90;99.90;;;;;;5000463;28;20048;-79
2022/10/21 02:47:15;;;;;;;9.77;5.22;;;7.80;99.90;;;;;;4986237;28;20125;-78
2022/10/21 02:49:43;;;;;;;11.27;5.78;;;7.80;99.90;;;;;;5003928;28;20109;-79
2022/10/21 02:52:09;;;;;;;7.63;5.40;;;7.80;99.90;;;;;;5003047;28;20118;-79
2022/10/21 02:54:35;;;;;;;9.02;5.72;;;7.80;99.90;;;;;;5002857;28;20046;-79
2022/10/21 02:57:00;;;;;;;9.82;5.72;;;7.80;99.90;;;;;;4984544;28;20022;-78
2022/10/21 02:59:26;;;;;;;9.88;5.53;;;7.80;99.90;;;;;;5002362;28;20026;-79
2022/10/21 03:01:52;;;;;;;9.90;5.78;;;7.80;99.90;;;;;;4984243;28;20053;-79
2022/10/21 03:04:17;;;;;;;10.95;6.18;;;7.80;99.90;;;;;;4983017;28;20033;-79
2022/10/21 03:06:43;;;;;;;9.13;5.10;;;7.80;99.90;;;;;;4999790;28;20030;-79
2022/10/21 03:09:09;;;;;;;9.70;5.45;;;7.80;99.90;;;;;;4999801;28;20065;-79
2022/10/21 03:11:34;;;;;;;7.45;5.53;;;7.80;99.90;;;;;;5001265;28;20102;-78
2022/10/21 03:14:00;;;;;;;10.35;5.63;;;7.80;99.90;;;;;;5000183;28;20026;-79
2022/10/21 03:16:25;;;;;;;11.23;5.80;;;7.80;99.90;;;;;;5000741;28;20033;-79
2022/10/21 03:18:51;;;;;;;9.20;5.22;;;7.80;99.90;;;;;;5000092;28;20049;-79
2022/10/21 03:21:17;;;;;;;9.35;5.30;;;7.80;99.90;;;;;;4998683;28;20481;-79
2022/10/21 03:23:42;;;;;;;9.63;5.65;;;7.80;99.90;;;;;;4998768;28;20050;-79
2022/10/21 03:26:08;;;;;;;10.23;6.10;;;7.80;99.90;;;;;;4999232;28;20038;-79
2022/10/21 03:28:33;;;;;;;10.65;6.00;;;7.80;99.90;;;;;;4998587;28;20023;-79
2022/10/21 03:30:59;;;;;;;11.38;5.60;;;7.80;99.90;;;;;;4998495;28;20093;-79
2022/10/21 03:33:25;;;;;;;11.02;5.50;;;7.80;99.90;;;;;;4997996;28;20118;-79
2022/10/21 03:35:50;;;;;;;8.30;5.38;;;7.80;99.90;;;;;;4980694;28;20037;-78
2022/10/21 03:38:16;;;;;;;9.82;5.30;;;7.80;99.90;;;;;;4997867;28;20057;-79
2022/10/21 03:40:42;;;;;;;6.43;5.18;;;7.80;99.90;;;;;;4980579;28;20477;-79
2022/10/21 03:43:07;;;;;;;8.63;5.15;;;7.80;99.90;;;;;;4980446;28;20088;-79
2022/10/21 03:45:33;;;;;;;10.27;5.07;;;7.70;99.90;;;;;;4997104;28;20479;-79
2022/10/21 03:47:59;;;;;;;9.80;5.43;;;7.60;99.90;;;;;;4979760;28;20470;-79
2022/10/21 03:50:24;;;;;;;8.30;4.65;;;7.50;99.90;;;;;;4997351;28;20026;-79
2022/10/21 03:52:50;;;;;;;8.00;5.53;;;7.40;99.90;;;;;;4997740;28;20024;-79
2022/10/21 03:55:19;;;;;;;8.27;5.45;;;7.40;99.90;;;;;;4979924;28;20370;-79
2022/10/21 03:57:45;;;;;;;;;;;7.30;99.90;;;;;;4997925;28;20018;-79
2022/10/21 04:00:13;;;;;;;10.05;5.65;;;7.30;99.90;;;;;;4979503;28;19902;-79
2022/10/21 04:02:39;;;;;;;9.43;5.43;;;7.20;99.90;;;;;;4997127;28;20505;-80
2022/10/21 04:05:05;;;;;;;12.55;5.57;;;7.20;99.90;;;;;;4998347;28;20019;-79
2022/10/21 04:07:30;;;;;;;14.90;6.60;;;7.20;99.90;;;;;;5000137;28;20088;-78
2022/10/21 04:09:56;;;;;;;14.60;7.75;;;7.20;99.90;;;;;;5002948;28;20023;-79
2022/10/21 04:12:22;;;;;;;11.93;5.72;;;7.20;99.90;;;;;;4984390;28;20033;-81
2022/10/21 04:14:47;;;;;;;11.95;5.38;;;7.30;99.90;;;;;;5003991;28;20030;-75
2022/10/21 04:17:13;;;;;;;10.27;5.88;;;7.30;99.90;;;;;;4981513;28;20053;-75
2022/10/21 04:19:38;;;;;;;10.00;6.20;;;7.30;99.90;;;;;;4999375;28;20346;-78
2022/10/21 04:22:05;;;;;;;8.98;6.28;;;7.30;99.90;;;;;;4980852;28;20513;-74
2022/10/21 04:24:31;;;;;;;13.95;6.43;;;7.30;99.90;;;;;;4998620;28;20026;-78
2022/10/21 04:26:56;;;;;;;9.02;5.63;;;7.30;99.90;;;;;;4998700;28;20022;-62
2022/10/21 04:29:22;;;;;;;10.85;5.30;;;7.30;99.90;;;;;;4997722;28;20077;-77
2022/10/21 04:31:47;;;;;;;8.48;5.70;;;7.30;99.90;;;;;;4981058;28;20073;-76
2022/10/21 04:34:13;;;;;;;9.10;6.13;;;7.40;99.90;;;;;;4981165;28;20026;-75
2022/10/21 04:36:39;;;;;;;12.18;5.78;;;7.30;99.90;;;;;;4981116;28;20039;-75
2022/10/21 04:39:04;;;;;;;12.68;6.30;;;7.30;99.90;;;;;;4999048;28;20022;-75
2022/10/21 04:41:30;;;;;;;10.38;5.80;;;7.30;99.90;;;;;;4981343;28;20366;-76
2022/10/21 04:43:56;;;;;;;10.98;6.63;;;7.30;99.90;;;;;;4998210;28;20029;-77
2022/10/21 04:46:21;;;;;;;9.02;5.97;;;7.30;99.90;;;;;;4980790;28;20034;-77
2022/10/21 04:48:47;;;;;;;14.85;6.88;;;7.30;99.90;;;;;;4980506;28;20050;-77
2022/10/21 04:51:13;;;;;;;11.13;5.75;;;7.30;99.90;;;;;;4980985;28;20022;-77
2022/10/21 04:53:39;;;;;;;10.65;6.28;;;7.40;99.90;;;;;;4997916;28;20081;-75
2022/10/21 04:56:05;;;;;;;11.77;6.18;;;7.30;99.90;;;;;;4997695;28;20029;-75
2022/10/21 04:58:30;;;;;;;14.43;6.40;;;7.30;99.90;;;;;;4997998;28;20030;-75
2022/10/21 05:00:56;;;;;;;9.60;6.40;;;7.30;99.90;;;;;;4997633;28;20032;-75
2022/10/21 05:03:22;;;;;;;9.65;5.97;;;7.20;99.90;;;;;;4980457;28;20022;-75
2022/10/21 05:05:49;;;;;;;10.27;6.50;;;7.10;99.90;;;;;;4997294;28;20041;-77
2022/10/21 05:08:15;;;;;;;7.32;5.80;;;7.00;99.90;;;;;;4997638;28;20080;-76
2022/10/21 05:10:40;;;;;;;9.52;6.05;;;7.00;99.90;;;;;;4980166;28;20023;-76
2022/10/21 05:13:06;;;;;;;14.73;6.18;;;7.00;99.90;;;;;;4980634;28;20073;-76
2022/10/21 05:15:32;;;;;;;10.55;6.35;;;7.00;99.90;;;;;;4998544;28;20022;-75
2022/10/21 05:17:58;;;;;;;10.30;6.13;;;7.00;99.90;;;;;;4998296;28;20034;-75
2022/10/21 05:20:23;;;;;;;11.10;6.03;;;6.90;99.90;;;;;;5000781;28;20076;-75
2022/10/21 05:22:50;;;;;;;11.48;6.50;;;6.90;99.90;;;;;;5000733;28;20105;-76
2022/10/21 05:25:17;;;;;;;11.02;6.70;;;6.90;99.90;;;;;;5000736;28;20038;-75
2022/10/21 05:27:43;;;;;;;12.05;6.50;;;6.80;99.90;;;;;;4983747;28;20027;-75
2022/10/21 05:30:09;;;;;;;11.32;6.32;;;6.80;99.90;;;;;;4982842;28;20022;-75
2022/10/21 05:32:35;;;;;;;14.38;6.38;;;6.80;99.90;;;;;;4999781;28;20401;-75
2022/10/21 05:35:00;;;;;;;11.25;6.65;;;6.80;99.90;;;;;;4999244;28;20022;-75
2022/10/21 05:37:26;;;;;;;13.55;6.78;;;6.70;99.90;;;;;;4982623;28;20117;-77
2022/10/21 05:39:52;;;;;;;16.77;6.70;;;6.70;99.90;;;;;;4981439;28;20026;-78
2022/10/21 05:42:17;;;;;;;15.20;6.80;;;6.70;99.90;;;;;;4999704;28;20073;-77
2022/10/21 05:44:43;;;;;;;12.43;6.47;;;6.80;99.90;;;;;;4998509;28;20019;-78
2022/10/21 05:47:09;;;;;;;12.73;7.28;;;6.80;99.90;;;;;;4998255;28;20030;-77
2022/10/21 05:49:34;;;;;;;13.40;7.43;;;6.80;99.90;;;;;;4997792;28;20023;-77
2022/10/21 05:52:01;;;;;;;11.20;6.63;;;6.80;99.90;;;;;;4998982;28;20450;-76
2022/10/21 05:54:27;;;;;;;9.40;6.22;;;6.80;99.90;;;;;;4997872;28;20022;-77
2022/10/21 05:56:55;;;;;;;10.68;7.03;;;6.90;99.90;;;;;;4997951;28;20033;-77
2022/10/21 05:59:21;;;;;;;11.23;6.72;;;6.90;99.90;;;;;;4998108;28;20037;-77
2022/10/21 06:01:47;;;;;;;13.60;6.93;;;7.00;99.90;;;;;;4997797;28;20078;-77
2022/10/21 06:04:12;;;;;;;13.38;7.03;;;7.10;99.90;;;;;;4979707;28;20466;-76
2022/10/21 06:06:38;;;;;;;12.68;6.55;;;7.10;99.90;;;;;;4997284;28;20146;-77
2022/10/21 06:09:04;;;;;;;15.80;7.63;;;7.20;99.90;;;;;;4980175;28;20022;-77
2022/10/21 06:11:30;;;;;;;13.73;6.85;;;7.30;99.90;;;;;;4997707;28;20026;-76
2022/10/21 06:13:56;;;;;;;13.15;6.93;;;7.30;99.90;;;;;;4980132;28;20094;-77
2022/10/21 06:16:22;;;;;;;15.00;7.47;;;7.40;99.90;;;;;;4979442;28;20077;-76
2022/10/21 06:18:48;;;;;;;12.48;6.78;;;7.50;99.90;;;;;;4980426;28;20485;-76
2022/10/21 06:21:14;;;;;;;9.90;6.47;;;7.50;99.90;;;;;;4998435;28;20026;-77
2022/10/21 06:23:39;;;;;;;13.02;7.32;;;7.60;99.90;;;;;;4980377;28;20485;-77
2022/10/21 06:26:16;;;;;;;12.85;7.55;;;7.70;99.90;;;;;;4997956;28;20034;-57
2022/10/21 06:28:43;;;;;;;12.63;6.85;;;7.70;99.90;;;;;;4998408;28;20458;-75
2022/10/21 06:31:15;;;;;;;12.23;7.10;;;7.80;99.90;;;;;;4998307;28;20028;-75
2022/10/21 06:33:41;;;;;;;15.60;6.90;;;7.90;99.90;;;;;;4999809;28;20022;-75
2022/10/21 06:36:07;;;;;;;13.52;7.15;;;8.10;99.90;;;;;;4984045;28;20077;-75
2022/10/21 06:38:33;;;;;;;18.63;6.90;;;8.20;99.90;;;;;;5003317;28;20026;-74
2022/10/21 06:41:04;;;;;;;13.88;6.57;;;8.30;99.90;;;;;;4985626;28;20033;-75
2022/10/21 06:43:30;;;;;;;14.48;6.20;;;8.50;99.90;;;;;;4984076;28;20023;-75
2022/10/21 06:46:04;;;;;;;11.60;7.55;;;8.70;99.90;;;;;;4983962;28;20034;-74
2022/10/21 06:48:30;;;;;;;12.50;6.45;;;9.00;99.90;;;;;;4984316;28;20093;-74
2022/10/21 06:51:19;;;;;;;12.95;6.10;;;9.30;99.90;;;;;;4985683;28;20029;-75
2022/10/21 06:53:45;;;;;;;10.82;6.13;;;9.50;99.90;;;;;;5001076;28;20064;-75
2022/10/21 06:56:17;;;;;;;10.35;5.93;;;9.70;99.90;;;;;;4982703;28;20073;-74
2022/10/21 06:58:46;;;;;;;15.32;6.55;;;9.90;99.90;;;;;;4982510;28;20030;-74
2022/10/21 07:01:20;;;;;;;10.35;6.03;;;10.00;99.90;;;;;;4982375;28;20026;-75
2022/10/21 07:03:46;;;;;;;8.00;5.15;;;10.10;99.90;;;;;;4982593;28;20146;-75
2022/10/21 07:06:12;;;;;;;11.25;6.07;;;10.20;99.90;;;;;;4999663;28;20066;-75
2022/10/21 07:08:38;;;;;;;11.02;5.88;;;10.40;99.90;;;;;;4981535;28;20117;-75
2022/10/21 07:11:05;;;;;;;8.75;5.55;;;10.40;99.90;;;;;;4997385;28;20018;-74
2022/10/21 07:13:31;;;;;;;9.23;5.57;;;10.50;99.90;;;;;;4997527;28;20030;-75
2022/10/21 07:16:04;;;;;;;14.20;6.03;;;10.60;99.90;;;;;;4981233;28;20033;-75
2022/10/21 07:18:30;;;;;;;11.05;5.40;;;10.70;99.90;;;;;;4999290;28;20054;-74
2022/10/21 07:21:01;;;;;;;13.52;6.30;;;10.70;99.90;;;;;;4981277;28;20022;-75
2022/10/21 07:23:26;;;;;;;12.63;6.00;;;10.60;99.90;;;;;;4997993;28;20049;-75
2022/10/21 07:25:52;;;;;;;10.77;5.97;;;10.70;99.90;;;;;;4998503;28;20031;-74
2022/10/21 07:28:18;;;;;;;9.75;5.57;;;10.80;99.90;;;;;;4997930;28;20023;-74
2022/10/21 07:30:44;;;;;;;8.15;5.68;;;10.80;99.90;;;;;;4980156;28;20026;-75
2022/10/21 07:33:10;;;;;;;8.10;5.10;;;11.00;99.90;;;;;;4999713;28;20466;-74
2022/10/21 07:35:36;;;;;;;7.95;5.50;;;11.20;99.90;;;;;;4981090;28;20018;-74
2022/10/21 07:38:02;;;;;;;10.13;5.63;;;11.50;99.90;;;;;;4997359;28;20033;-74
2022/10/21 07:40:28;;;;;;;17.25;6.50;;;11.70;99.90;;;;;;4998688;28;20018;-74
2022/10/21 07:42:55;;;;;;;11.25;5.80;;;11.90;99.90;;;;;;4980874;28;20431;-74
2022/10/21 07:45:21;;;;;;;12.40;6.60;;;11.90;99.90;;;;;;4987307;28;20022;-75
2022/10/21 07:47:47;;;;;;;12.07;6.00;;;11.80;99.90;;;;;;4983266;28;20451;-74
2022/10/21 07:50:13;;;;;;;11.27;6.18;;;11.90;99.90;;;;;;4987133;28;20030;-75
2022/10/21 07:52:44;;;;;;;11.57;6.20;;;12.00;99.90;;;;;;5000867;28;20033;-74
2022/10/21 07:55:15;;;;;;;9.20;6.03;;;12.20;99.90;;;;;;4981086;28;20065;-76
2022/10/21 07:57:41;;;;;;;9.20;5.85;;;12.50;99.90;;;;;;4980985;28;20022;-75
2022/10/21 08:00:09;;;;;;;14.10;6.07;;;12.70;99.90;;;;;;4984816;28;20065;-75
2022/10/21 08:02:35;;;;;;;10.95;6.45;;;12.80;99.90;;;;;;4980689;28;20351;-75
2022/10/21 08:05:01;;;;;;;9.48;6.63;;;13.20;99.90;;;;;;4984286;28;20362;-75
2022/10/21 08:07:26;;;;;;;9.10;5.38;;;13.10;99.90;;;;;;4998478;28;20022;-74
2022/10/21 08:09:52;;;;;;;8.25;6.20;;;13.10;99.90;;;;;;4980297;28;20033;-75
2022/10/21 08:12:17;;;;;;;8.98;5.95;;;13.40;99.90;;;;;;4997745;28;20057;-76
2022/10/21 08:14:43;;;;;;;10.43;6.05;;;13.70;99.90;;;;;;4980137;28;20050;-75
2022/10/21 08:17:09;;;;;;;12.80;6.10;;;14.20;99.90;;;;;;4997642;28;20038;-75
2022/10/21 08:19:35;;;;;;;13.60;6.07;;;13.60;99.90;;;;;;4982510;28;20029;-76
2022/10/21 08:22:00;;;;;;;8.48;5.38;;;13.30;99.90;;;;;;4999910;28;20057;-75
2022/10/21 08:24:27;;;;;;;7.78;5.47;;;13.60;99.90;;;;;;4997626;28;20027;-75
2022/10/21 08:26:52;;;;;;;11.50;5.90;;;14.00;99.90;;;;;;4997533;28;20037;-76
2022/10/21 08:29:18;;;;;;;10.68;5.75;;;13.80;99.90;;;;;;5001241;28;20018;-75
2022/10/21 08:31:44;;;;;;;7.75;5.65;;;13.50;99.90;;;;;;4997560;28;20030;-76
2022/10/21 08:34:10;;;;;;;17.83;6.68;;;13.60;99.90;;;;;;4979890;28;20024;-75
2022/10/21 08:36:37;;;;;;;13.00;6.00;;;13.40;99.90;;;;;;4981968;28;20060;-74
2022/10/21 08:39:02;;;;;;;8.20;5.72;;;12.90;99.90;;;;;;5000152;28;20361;-75
2022/10/21 08:41:28;;;;;;;11.02;6.00;;;12.80;99.90;;;;;;4982428;28;20517;-76
2022/10/21 08:44:25;;;;;;;8.85;5.63;;;12.50;99.90;;;;;;4982235;28;20370;-75
2022/10/21 08:47:32;;;;;;;24.23;7.78;;;12.40;99.90;;;;;;4979595;28;20474;-75
2022/10/21 08:50:09;;;;;;;10.15;5.25;;;12.50;99.90;;;;;;4979104;28;20033;-75
2022/10/21 08:53:04;;;;;;;11.23;5.55;;;12.70;99.90;;;;;;4998806;28;20022;-75
2022/10/21 08:55:33;;;;;;;8.20;5.05;;;12.60;99.90;;;;;;4994971;28;20070;-75
2022/10/21 08:57:59;;;;;;;11.75;5.82;;;12.80;99.90;;;;;;4996882;28;20030;-75
2022/10/21 09:01:01;;;;;;;13.68;5.25;;;13.00;99.90;;;;;;4979910;28;20401;-74
2022/10/21 09:03:43;;;;;;;12.57;6.30;;;12.90;99.90;;;;;;4917693;29;20028;-75
2022/10/21 09:06:09;;;;;;;10.05;5.03;;;12.90;99.90;;;;;;4989077;28;20048;-75
2022/10/21 09:08:37;;;;;;;9.23;5.35;;;13.00;99.90;;;;;;4996972;28;20022;-76
2022/10/21 09:11:25;;;;;;;8.77;5.13;;;13.00;99.90;;;;;;4979457;28;20018;-75
2022/10/21 09:14:11;;;;;;;10.13;5.70;;;13.10;99.90;;;;;;4978886;28;20501;-74
2022/10/21 09:16:46;;;;;;;9.55;4.85;;;13.10;99.90;;;;;;4979427;28;20450;-75
2022/10/21 09:19:46;;;;;;;15.45;4.88;;;13.00;99.90;;;;;;4997756;28;20018;-75
2022/10/21 09:22:43;;;;;;;7.57;5.25;;;12.90;99.90;;;;;;4910790;28;20047;-75
2022/10/21 09:25:42;;;;;;;10.02;5.07;;;13.20;99.90;;;;;;4977022;28;20455;-75
2022/10/21 09:28:13;;;;;;;9.52;5.25;;;13.40;99.90;;;;;;4971608;28;20041;-75
2022/10/21 09:30:41;;;;;;;11.45;5.40;;;13.20;99.90;;;;;;4975789;28;20029;-74
2022/10/21 09:33:20;;;;;;;9.00;5.03;;;13.00;99.90;;;;;;4977168;28;20023;-74
2022/10/21 09:35:53;;;;;;;9.85;4.80;;;13.00;99.90;;;;;;4977110;28;20102;-75
2022/10/21 09:38:25;;;;;;;14.27;5.32;;;13.00;99.90;;;;;;4979843;28;20025;-79
2022/10/21 09:40:58;;;;;;;7.25;4.40;;;13.10;99.90;;;;;;4977995;28;20077;-74
2022/10/21 09:43:25;;;;;;;9.20;4.28;;;13.80;99.90;;;;;;4976703;28;20022;-74
2022/10/21 09:45:51;;;;;;;12.18;4.55;;;14.50;99.90;;;;;;4976227;28;20494;-75
2022/10/21 09:48:16;;;;;;;12.60;4.18;;;14.50;99.30;;;;;;4975430;28;20027;-57
2022/10/21 09:50:54;;;;;;;7.25;3.95;;;14.90;99.10;;;;;;4976732;28;20023;-58
2022/10/21 09:53:26;;;;;;;7.53;3.58;;;15.50;98.10;;;;;;4975219;28;20031;-58
2022/10/21 09:56:00;;;;;;;10.68;4.38;;;15.30;98.20;;;;;;4976870;28;20363;-75
2022/10/21 09:58:47;;;;;;;11.32;4.45;;;14.60;98.00;;;;;;4975134;28;20050;-75
2022/10/21 10:01:21;;;;;;;10.85;4.38;;;14.40;98.30;;;;;;4975142;28;20477;-74
2022/10/21 10:03:49;;;;;;;6.40;4.50;;;14.40;98.80;;;;;;4976291;28;20030;-74
2022/10/21 10:06:36;;;;;;;8.20;4.43;;;14.40;98.50;;;;;;4976088;28;20118;-75
2022/10/21 10:09:14;;;;;;;7.28;4.13;;;14.20;99.10;;;;;;4976096;28;20073;-75
2022/10/21 10:11:54;;;;;;;8.38;4.43;;;14.20;99.10;;;;;;4974843;28;20031;-75
2022/10/21 10:14:25;;;;;;;10.10;4.35;;;14.10;98.80;;;;;;4976886;28;20451;-74
2022/10/21 10:16:51;;;;;;;7.57;4.30;;;14.10;98.90;;;;;;4975322;28;20351;-75
2022/10/21 10:19:18;;;;;;;14.77;4.68;;;14.30;98.70;;;;;;4975020;28;20030;-75
2022/10/21 10:21:46;;;;;;;7.53;4.15;;;14.00;98.70;;;;;;4975385;28;20077;-74
2022/10/21 10:24:17;;;;;;;9.95;4.10;;;13.80;99.50;;;;;;4978155;28;20089;-75
2022/10/21 10:26:43;;;;;;;10.80;4.05;;;13.70;99.40;;;;;;4997025;28;20034;-75
2022/10/21 10:29:14;;;;;;;5.75;4.32;;;13.60;99.90;;;;;;4978120;28;20026;-75
2022/10/21 10:31:54;;;;;;;8.15;4.65;;;13.60;99.90;;;;;;4977899;28;20419;-74
2022/10/21 10:34:21;;;;;;;;;;;13.70;99.90;;;;;;4996077;28;20034;-75
2022/10/21 10:36:48;;;;;;;5.78;4.22;;;13.60;99.90;;;;;;4977717;28;19902;-74
2022/10/21 10:39:29;;;;;;;7.13;4.60;;;13.60;99.50;;;;;;4979967;28;20360;-75
2022/10/21 10:41:55;;;;;;;15.35;3.92;;;13.80;99.50;;;;;;4977249;28;20027;-75
2022/10/21 10:44:38;;;;;;;4.60;3.70;;;13.90;99.20;;;;;;4994917;28;20025;-75
2022/10/21 10:47:08;;;;;;;8.85;4.63;;;14.20;98.50;;;;;;4994840;28;20080;-75
2022/10/21 10:49:42;;;;;;;7.40;4.50;;;14.20;97.90;;;;;;4978571;28;20025;-75
2022/10/21 10:52:11;;;;;;;8.35;4.50;;;13.90;98.80;;;;;;4995845;28;20030;-74
2022/10/21 10:54:43;;;;;;;9.48;3.85;;;13.90;98.90;;;;;;4995061;28;20442;-74
2022/10/21 10:57:17;;;;;;;8.75;4.28;;;13.80;99.10;;;;;;4997458;28;20077;-60
2022/10/21 10:59:44;;;;;;;7.90;4.72;;;13.50;99.90;;;;;;4980241;28;20033;-75
2022/10/21 11:02:10;;;;;;;6.85;4.28;;;13.50;99.60;;;;;;4981738;28;20026;-75
2022/10/21 11:04:38;;;;;;;6.45;4.50;;;13.60;99.30;;;;;;4981093;28;20057;-74
2022/10/21 11:07:18;;;;;;;7.70;4.80;;;13.80;98.90;;;;;;4977686;28;20041;-75
2022/10/21 11:09:45;;;;;;;11.65;4.40;;;14.20;98.50;;;;;;4977896;28;20022;-75
2022/10/21 11:12:25;;;;;;;8.00;4.57;;;14.30;97.80;;;;;;4994878;28;20018;-75
2022/10/21 11:14:55;;;;;;;5.10;4.10;;;14.70;97.70;;;;;;4994790;28;20360;-77
2022/10/21 11:17:28;;;;;;;7.53;4.50;;;14.50;97.30;;;;;;4994825;28;20088;-75
2022/10/21 11:20:35;;;;;;;9.32;4.05;;;14.20;97.80;;;;;;4994556;28;20518;-75
2022/10/21 11:23:35;;;;;;;9.90;4.85;;;14.50;97.70;;;;;;4899094;29;20052;-76
2022/10/21 11:26:17;;;;;;;11.10;4.78;;;14.50;96.90;;;;;;4915446;29;20517;-77
2022/10/21 11:29:29;;;;;;;8.68;4.90;;;14.30;97.40;;;;;;4980115;28;20034;-76
2022/10/21 11:32:24;;;;;;;6.85;4.53;;;14.20;97.60;;;;;;4984359;28;20125;-76
2022/10/21 11:35:08;;;;;;;8.20;4.40;;;14.30;97.50;;;;;;4994840;28;20026;-77
2022/10/21 11:37:57;;;;;;;8.95;4.55;;;14.20;97.60;;;;;;4995758;28;20030;-77
2022/10/21 11:40:53;;;;;;;9.32;4.68;;;14.40;97.80;;;;;;4977393;28;20366;-77
2022/10/21 11:43:40;;;;;;;7.78;4.40;;;14.70;97.20;;;;;;4985838;28;20027;-77
2022/10/21 11:46:23;;;;;;;5.55;4.28;;;14.90;96.70;;;;;;4977451;28;20418;-76
2022/10/21 11:49:12;;;;;;;6.22;4.97;;;14.70;96.40;;;;;;4995804;28;20046;-76
2022/10/21 11:52:08;;;;;;;9.85;4.68;;;14.60;97.10;;;;;;4976813;28;20023;-77
2022/10/21 11:54:39;;;;;;;9.18;3.50;;;14.80;96.40;;;;;;4994742;28;20026;-78
2022/10/21 11:57:09;;;;;;;7.72;3.88;;;14.60;96.60;;;;;;4994477;28;20369;-78
2022/10/21 11:59:53;;;;;;;;;;;14.70;97.00;;;;;;4994666;28;20149;-77
2022/10/21 12:02:24;;;;;;;9.07;4.00;;;15.20;96.30;;;;;;4994106;28;19901;-78
2022/10/21 12:05:25;;;;;;;9.07;3.97;;;15.10;95.70;;;;;;4994058;28;20473;-63
2022/10/21 12:07:51;;;;;;;15.50;4.00;;;15.20;96.40;;;;;;4976578;28;20026;-63
2022/10/21 12:11:15;;;;;;;5.00;3.55;;;15.20;96.70;;;;;;4994452;28;20026;-75
2022/10/21 12:13:45;;;;;;;5.68;3.78;;;14.90;96.00;;;;;;4899066;29;20024;-74
2022/10/21 12:16:13;;;;;;;;;;;14.70;96.60;;;;;;4915705;29;20079;-74
2022/10/21 12:18:46;;;;;;;5.30;4.20;;;14.30;96.80;;;;;;4919898;29;19903;-73
2022/10/21 12:21:19;;;;;;;7.93;4.00;;;13.90;98.20;;;;;;4903776;29;20068;-73
2022/10/21 12:23:53;;;;;;;10.65;5.05;;;13.50;98.60;;;;;;4904167;29;20389;-74
2022/10/21 12:26:27;;;;;;;6.50;3.67;;;13.60;99.10;;;;;;4905331;29;20043;-79
2022/10/21 12:29:05;;;;;;;9.30;3.75;;;13.70;98.80;;;;;;4925816;29;20108;-74
2022/10/21 12:32:02;;;;;;;8.65;3.90;;;13.70;98.90;;;;;;4925036;29;20114;-73
2022/10/21 12:34:28;;;;;;;10.68;4.80;;;13.50;99.30;;;;;;4924801;29;20504;-73
2022/10/21 12:36:53;;;;;;;6.00;4.22;;;13.40;99.50;;;;;;4924667;29;20036;-73
2022/10/21 12:39:34;;;;;;;13.65;4.80;;;13.30;99.80;;;;;;4923374;29;20067;-73
2022/10/21 12:42:13;;;;;;;11.75;4.25;;;13.00;99.80;;;;;;4924294;29;20077;-75
2022/10/21 12:44:44;;;;;;;5.75;3.95;;;13.10;99.90;;;;;;4981008;28;20370;-74
2022/10/21 12:47:28;;;;;;;6.82;4.13;;;13.00;99.90;;;;;;4984944;28;20446;-73
2022/10/21 12:50:12;;;;;;;8.02;3.72;;;13.00;99.90;;;;;;5002146;28;20027;-75
2022/10/21 12:52:40;;;;;;;10.45;4.28;;;13.00;99.90;;;;;;5000682;28;20026;-74
2022/10/21 12:55:21;;;;;;;8.18;4.30;;;13.10;99.90;;;;;;4999506;28;20018;-73
2022/10/21 12:57:58;;;;;;;7.07;4.50;;;13.20;99.90;;;;;;4998640;28;20032;-73
2022/10/21 13:00:27;;;;;;;10.32;4.80;;;13.40;99.90;;;;;;4980738;28;20090;-76
2022/10/21 13:03:03;;;;;;;5.70;4.10;;;13.60;99.90;;;;;;4997144;28;20029;-73
2022/10/21 13:05:37;;;;;;;13.52;4.70;;;13.70;99.50;;;;;;4998845;28;20414;-74
2022/10/21 13:08:23;;;;;;;10.50;4.60;;;13.80;99.60;;;;;;4980594;28;20101;-76
2022/10/21 13:13:35;;;;;;;11.25;4.47;;;13.60;99.60;;;;;;4999717;28;20503;-74
2022/10/21 13:16:21;;;;;;;10.52;4.40;;;13.50;99.80;;;;;;4983907;28;20030;-74
2022/10/21 13:18:50;;;;;;;7.72;4.50;;;13.40;99.90;;;;;;4985171;28;20038;-74
2022/10/21 13:21:23;;;;;;;10.23;4.50;;;13.60;99.90;;;;;;4998718;28;20050;-74